createdAt,value
2019-01-29T00:00:39.334Z,3.57
2019-01-29T00:01:21.541Z,3.40
2019-01-29T00:01:57.259Z,3.67
2019-01-29T00:02:32.630Z,3.20
2019-01-29T00:03:08.533Z,3.30
2019-01-29T00:03:44.034Z,2.80
2019-01-29T00:04:19.452Z,3.40
2019-01-29T00:04:55.145Z,2.87
2019-01-29T00:05:30.558Z,2.50
2019-01-29T00:06:08.801Z,3.70
2019-01-29T00:06:43.897Z,3.20
2019-01-29T00:07:19.309Z,3.03
2019-01-29T00:07:54.740Z,2.80
2019-01-29T00:08:30.416Z,3.00
2019-01-29T00:09:09.518Z,3.20
2019-01-29T00:09:45.190Z,2.83
2019-01-29T00:10:20.564Z,3.00
2019-01-29T00:10:55.966Z,3.20
2019-01-29T00:11:31.358Z,2.67
2019-01-29T00:12:07.119Z,2.83
2019-01-29T00:12:42.508Z,3.03
2019-01-29T00:13:18.166Z,3.10
2019-01-29T00:13:53.840Z,3.10
2019-01-29T00:14:29.491Z,2.93
2019-01-29T00:15:05.614Z,2.67
2019-01-29T00:15:41.295Z,3.10
2019-01-29T00:16:17.033Z,3.40
2019-01-29T00:16:52.531Z,3.30
2019-01-29T00:17:28.275Z,2.70
2019-01-29T00:18:03.883Z,2.50
2019-01-29T00:18:39.340Z,3.27
2019-01-29T00:19:14.742Z,2.90
2019-01-29T00:19:50.121Z,2.90
2019-01-29T00:20:25.526Z,2.67
2019-01-29T00:21:00.910Z,3.20
2019-01-29T00:21:36.363Z,3.27
2019-01-29T00:22:11.811Z,3.07
2019-01-29T00:22:47.480Z,3.10
2019-01-29T00:23:23.144Z,3.40
2019-01-29T00:23:58.534Z,3.37
2019-01-29T00:24:33.924Z,2.47
2019-01-29T00:25:09.475Z,2.40
2019-01-29T00:25:45.147Z,2.80
2019-01-29T00:26:20.781Z,2.63
2019-01-29T00:26:56.205Z,2.70
2019-01-29T00:27:31.618Z,2.73
2019-01-29T00:28:07.160Z,2.97
2019-01-29T00:28:42.593Z,2.37
2019-01-29T00:29:18.242Z,2.80
2019-01-29T00:29:53.658Z,2.60
2019-01-29T00:30:29.045Z,2.90
2019-01-29T00:31:04.431Z,2.80
2019-01-29T00:31:39.860Z,2.43
2019-01-29T00:32:15.274Z,2.53
2019-01-29T00:32:50.652Z,2.10
2019-01-29T00:33:26.342Z,2.30
2019-01-29T00:34:01.720Z,2.00
2019-01-29T00:34:37.201Z,1.83
2019-01-29T00:35:13.001Z,2.43
2019-01-29T00:35:48.667Z,2.40
2019-01-29T00:36:24.057Z,2.20
2019-01-29T00:36:59.451Z,2.53
2019-01-29T00:37:35.284Z,2.13
2019-01-29T00:38:10.996Z,2.10
2019-01-29T00:38:46.383Z,2.40
2019-01-29T00:39:22.026Z,2.47
2019-01-29T00:39:57.415Z,2.13
2019-01-29T00:40:33.056Z,2.40
2019-01-29T00:41:08.585Z,2.30
2019-01-29T00:41:44.021Z,2.63
2019-01-29T00:42:19.446Z,2.40
2019-01-29T00:42:54.823Z,2.70
2019-01-29T00:43:30.252Z,2.40
2019-01-29T00:44:06.059Z,1.97
2019-01-29T00:44:41.769Z,2.90
2019-01-29T00:45:17.300Z,2.27
2019-01-29T00:45:52.927Z,2.30
2019-01-29T00:46:28.323Z,2.63
2019-01-29T00:47:03.990Z,2.37
2019-01-29T00:47:39.535Z,2.87
2019-01-29T00:48:15.020Z,2.50
2019-01-29T00:48:50.404Z,2.63
2019-01-29T00:49:26.175Z,2.20
2019-01-29T00:50:01.820Z,2.50
2019-01-29T00:50:37.299Z,2.70
2019-01-29T00:51:12.754Z,2.77
2019-01-29T00:51:48.379Z,2.60
2019-01-29T00:52:24.029Z,2.60
2019-01-29T00:52:59.663Z,2.40
2019-01-29T00:53:35.466Z,2.60
2019-01-29T00:54:10.917Z,2.60
2019-01-29T00:54:46.557Z,2.83
2019-01-29T00:55:21.928Z,2.93
2019-01-29T00:55:57.300Z,2.50
2019-01-29T00:56:32.702Z,2.47
2019-01-29T00:57:08.378Z,2.70
2019-01-29T00:57:44.075Z,2.43
2019-01-29T00:58:19.451Z,2.40
2019-01-29T00:58:54.824Z,2.83
2019-01-29T00:59:30.222Z,2.70
2019-01-29T01:00:08.226Z,2.40
2019-01-29T01:00:43.704Z,2.87
2019-01-29T01:01:19.134Z,2.70
2019-01-29T01:01:54.858Z,3.00
2019-01-29T01:02:30.265Z,2.43
2019-01-29T01:03:05.939Z,2.47
2019-01-29T01:03:41.352Z,3.10
2019-01-29T01:04:16.744Z,3.20
2019-01-29T01:04:52.254Z,2.97
2019-01-29T01:05:27.885Z,3.03
2019-01-29T01:06:03.277Z,3.10
2019-01-29T01:06:38.966Z,2.87
2019-01-29T01:07:14.360Z,3.00
2019-01-29T01:07:49.834Z,3.17
2019-01-29T01:08:25.230Z,3.10
2019-01-29T01:09:00.864Z,2.73
2019-01-29T01:09:36.230Z,3.10
2019-01-29T01:10:13.604Z,3.27
2019-01-29T01:10:49.096Z,3.47
2019-01-29T01:11:24.496Z,3.10
2019-01-29T01:11:59.971Z,2.80
2019-01-29T01:12:35.401Z,2.73
2019-01-29T01:13:10.800Z,2.87
2019-01-29T01:13:46.949Z,2.97
2019-01-29T01:14:22.602Z,3.10
2019-01-29T01:14:57.980Z,3.00
2019-01-29T01:15:33.748Z,3.07
2019-01-29T01:16:09.192Z,3.30
2019-01-29T01:16:44.691Z,2.70
2019-01-29T01:17:20.406Z,2.97
2019-01-29T01:17:56.095Z,3.30
2019-01-29T01:18:31.480Z,2.90
2019-01-29T01:19:07.091Z,2.67
2019-01-29T01:19:42.758Z,3.23
2019-01-29T01:20:18.791Z,3.00
2019-01-29T01:20:54.189Z,3.33
2019-01-29T01:21:30.002Z,3.10
2019-01-29T01:22:05.418Z,3.13
2019-01-29T01:22:40.819Z,3.20
2019-01-29T01:23:16.190Z,3.03
2019-01-29T01:23:51.559Z,3.20
2019-01-29T01:24:26.971Z,3.27
2019-01-29T01:25:02.417Z,3.47
2019-01-29T01:25:37.888Z,3.53
2019-01-29T01:26:13.689Z,3.60
2019-01-29T01:26:49.072Z,3.37
2019-01-29T01:27:24.742Z,3.17
2019-01-29T01:28:00.250Z,3.57
2019-01-29T01:28:35.764Z,2.90
2019-01-29T01:29:11.149Z,4.00
2019-01-29T01:29:46.550Z,3.27
2019-01-29T01:30:22.026Z,3.63
2019-01-29T01:30:57.718Z,2.93
2019-01-29T01:31:33.126Z,2.90
2019-01-29T01:32:08.790Z,3.37
2019-01-29T01:32:44.208Z,3.00
2019-01-29T01:33:19.601Z,3.70
2019-01-29T01:33:54.985Z,3.40
2019-01-29T01:34:30.408Z,3.13
2019-01-29T01:35:06.433Z,3.50
2019-01-29T01:35:42.094Z,3.80
2019-01-29T01:36:17.472Z,3.60
2019-01-29T01:36:53.110Z,2.97
2019-01-29T01:37:28.511Z,3.27
2019-01-29T01:38:04.275Z,3.60
2019-01-29T01:38:39.953Z,3.30
2019-01-29T01:39:15.369Z,4.30
2019-01-29T01:39:51.015Z,3.03
2019-01-29T01:40:26.434Z,2.60
2019-01-29T01:41:01.883Z,3.13
2019-01-29T01:41:37.293Z,3.57
2019-01-29T01:42:12.683Z,3.43
2019-01-29T01:42:48.070Z,3.17
2019-01-29T01:43:23.728Z,3.23
2019-01-29T01:43:59.251Z,2.70
2019-01-29T01:44:34.687Z,2.67
2019-01-29T01:45:10.913Z,2.70
2019-01-29T01:45:46.373Z,3.23
2019-01-29T01:46:22.139Z,3.33
2019-01-29T01:46:57.831Z,3.13
2019-01-29T01:47:33.215Z,2.97
2019-01-29T01:48:08.620Z,2.80
2019-01-29T01:48:44.098Z,3.23
2019-01-29T01:49:19.769Z,2.90
2019-01-29T01:49:55.670Z,2.97
2019-01-29T01:50:31.604Z,3.07
2019-01-29T01:51:06.979Z,3.20
2019-01-29T01:51:42.395Z,3.50
2019-01-29T01:52:18.113Z,3.17
2019-01-29T01:52:59.154Z,2.90
2019-01-29T01:53:30.634Z,2.93
2019-01-29T01:54:06.169Z,2.87
2019-01-29T01:54:41.567Z,3.03
2019-01-29T01:55:18.467Z,3.00
2019-01-29T01:55:54.418Z,2.53
2019-01-29T01:56:29.813Z,3.57
2019-01-29T01:57:05.321Z,2.73
2019-01-29T01:57:41.291Z,3.37
2019-01-29T01:58:16.725Z,2.57
2019-01-29T01:58:52.519Z,3.07
2019-01-29T01:59:27.903Z,2.93
2019-01-29T02:00:03.642Z,2.80
2019-01-29T02:00:39.059Z,3.17
2019-01-29T02:01:14.896Z,2.87
2019-01-29T02:01:50.760Z,2.97
2019-01-29T02:02:26.159Z,3.00
2019-01-29T02:03:01.949Z,3.33
2019-01-29T02:03:37.572Z,2.87
2019-01-29T02:04:12.962Z,2.83
2019-01-29T02:04:48.612Z,3.20
2019-01-29T02:05:24.078Z,3.00
2019-01-29T02:05:59.512Z,3.23
2019-01-29T02:06:34.890Z,2.70
2019-01-29T02:07:10.269Z,3.20
2019-01-29T02:07:45.828Z,2.53
2019-01-29T02:08:21.242Z,2.90
2019-01-29T02:08:56.662Z,2.57
2019-01-29T02:09:32.165Z,2.83
2019-01-29T02:10:19.045Z,2.73
2019-01-29T02:10:54.523Z,2.57
2019-01-29T02:11:30.323Z,3.13
2019-01-29T02:12:05.807Z,2.50
2019-01-29T02:12:41.768Z,2.83
2019-01-29T02:13:17.428Z,2.80
2019-01-29T02:13:53.168Z,2.70
2019-01-29T02:14:28.628Z,2.70
2019-01-29T02:15:04.737Z,2.63
2019-01-29T02:15:40.137Z,2.50
2019-01-29T02:16:15.536Z,2.70
2019-01-29T02:16:51.090Z,3.00
2019-01-29T02:17:26.528Z,2.40
2019-01-29T02:18:02.258Z,2.63
2019-01-29T02:18:37.898Z,2.60
2019-01-29T02:19:13.872Z,2.43
2019-01-29T02:19:49.527Z,2.53
2019-01-29T02:20:25.320Z,2.57
2019-01-29T02:21:00.751Z,2.83
2019-01-29T02:21:36.389Z,2.53
2019-01-29T02:22:11.774Z,2.67
2019-01-29T02:22:47.179Z,2.80
2019-01-29T02:23:22.628Z,2.30
2019-01-29T02:23:58.378Z,2.27
2019-01-29T02:24:33.997Z,2.47
2019-01-29T02:25:09.861Z,2.60
2019-01-29T02:25:45.480Z,2.43
2019-01-29T02:26:20.912Z,2.30
2019-01-29T02:26:56.433Z,1.87
2019-01-29T02:27:31.935Z,2.00
2019-01-29T02:28:07.323Z,2.27
2019-01-29T02:28:42.993Z,2.33
2019-01-29T02:29:18.409Z,2.80
2019-01-29T02:29:54.207Z,2.30
2019-01-29T02:30:29.754Z,2.20
2019-01-29T02:31:05.412Z,2.00
2019-01-29T02:31:40.773Z,2.43
2019-01-29T02:32:16.157Z,2.47
2019-01-29T02:32:51.602Z,2.40
2019-01-29T02:33:27.349Z,1.70
2019-01-29T02:34:02.802Z,1.90
2019-01-29T02:34:38.208Z,2.40
2019-01-29T02:35:13.727Z,2.50
2019-01-29T02:35:49.464Z,1.70
2019-01-29T02:36:25.004Z,2.17
2019-01-29T02:37:00.559Z,2.23
2019-01-29T02:37:36.270Z,2.07
2019-01-29T02:38:12.026Z,2.00
2019-01-29T02:38:48.076Z,1.70
2019-01-29T02:39:23.544Z,2.40
2019-01-29T02:39:59.182Z,1.90
2019-01-29T02:40:34.963Z,2.23
2019-01-29T02:41:10.660Z,2.13
2019-01-29T02:41:46.660Z,1.73
2019-01-29T02:42:22.405Z,2.30
2019-01-29T02:42:58.342Z,2.23
2019-01-29T02:43:34.025Z,2.17
2019-01-29T02:44:09.440Z,2.07
2019-01-29T02:44:45.147Z,2.07
2019-01-29T02:45:21.016Z,2.23
2019-01-29T02:45:56.746Z,2.07
2019-01-29T02:46:32.443Z,2.33
2019-01-29T02:47:07.866Z,2.10
2019-01-29T02:47:43.309Z,1.90
2019-01-29T02:48:18.979Z,2.00
2019-01-29T02:48:54.872Z,2.17
2019-01-29T02:49:30.314Z,2.33
2019-01-29T02:50:06.808Z,1.90
2019-01-29T02:50:42.506Z,2.10
2019-01-29T02:51:18.122Z,2.40
2019-01-29T02:51:53.563Z,1.90
2019-01-29T02:52:29.306Z,1.87
2019-01-29T02:53:05.082Z,1.83
2019-01-29T02:53:40.519Z,2.00
2019-01-29T02:54:16.177Z,2.17
2019-01-29T02:54:51.594Z,1.80
2019-01-29T02:55:27.318Z,2.30
2019-01-29T02:56:02.770Z,2.27
2019-01-29T02:56:38.200Z,2.00
2019-01-29T02:57:13.897Z,2.00
2019-01-29T02:57:49.297Z,1.80
2019-01-29T02:58:24.743Z,2.10
2019-01-29T02:59:00.200Z,1.90
2019-01-29T02:59:35.643Z,2.43
2019-01-29T03:00:14.860Z,2.40
2019-01-29T03:00:50.279Z,1.83
2019-01-29T03:01:25.844Z,2.27
2019-01-29T03:02:01.283Z,2.00
2019-01-29T03:02:36.706Z,1.97
2019-01-29T03:03:12.242Z,2.00
2019-01-29T03:03:47.678Z,2.90
2019-01-29T03:04:23.121Z,2.50
2019-01-29T03:04:58.847Z,2.63
2019-01-29T03:05:34.516Z,2.50
2019-01-29T03:06:10.307Z,2.10
2019-01-29T03:06:45.715Z,2.00
2019-01-29T03:07:21.233Z,2.27
2019-01-29T03:07:56.752Z,2.80
2019-01-29T03:08:32.181Z,2.27
2019-01-29T03:09:09.658Z,2.30
2019-01-29T03:09:45.335Z,2.50
2019-01-29T03:10:22.330Z,1.90
2019-01-29T03:10:57.762Z,2.43
2019-01-29T03:11:34.691Z,2.30
2019-01-29T03:12:10.109Z,2.40
2019-01-29T03:12:45.519Z,2.50
2019-01-29T03:13:20.939Z,2.23
2019-01-29T03:13:56.467Z,2.33
2019-01-29T03:14:31.957Z,2.43
2019-01-29T03:15:09.128Z,2.10
2019-01-29T03:15:44.546Z,2.40
2019-01-29T03:16:19.963Z,2.33
2019-01-29T03:16:55.427Z,2.77
2019-01-29T03:17:30.894Z,2.50
2019-01-29T03:18:06.412Z,2.30
2019-01-29T03:18:41.851Z,2.77
2019-01-29T03:19:17.268Z,2.20
2019-01-29T03:19:53.343Z,2.77
2019-01-29T03:20:28.816Z,2.60
2019-01-29T03:21:04.362Z,2.70
2019-01-29T03:21:39.774Z,2.70
2019-01-29T03:22:15.200Z,2.70
2019-01-29T03:22:50.610Z,2.50
2019-01-29T03:23:27.432Z,2.93
2019-01-29T03:24:03.419Z,3.00
2019-01-29T03:24:38.831Z,2.67
2019-01-29T03:25:14.262Z,2.60
2019-01-29T03:25:50.239Z,2.33
2019-01-29T03:26:25.710Z,2.90
2019-01-29T03:27:01.139Z,2.83
2019-01-29T03:27:36.839Z,2.17
2019-01-29T03:28:12.542Z,2.63
2019-01-29T03:28:48.282Z,2.23
2019-01-29T03:29:23.735Z,2.70
2019-01-29T03:29:59.239Z,2.60
2019-01-29T03:30:34.674Z,2.40
2019-01-29T03:31:10.112Z,3.00
2019-01-29T03:31:45.755Z,3.10
2019-01-29T03:32:21.184Z,2.77
2019-01-29T03:32:56.970Z,2.77
2019-01-29T03:33:32.761Z,2.93
2019-01-29T03:34:08.313Z,2.57
2019-01-29T03:34:43.746Z,2.83
2019-01-29T03:35:19.261Z,2.30
2019-01-29T03:35:54.695Z,2.60
2019-01-29T03:36:30.177Z,2.43
2019-01-29T03:37:05.854Z,2.67
2019-01-29T03:37:41.367Z,2.70
2019-01-29T03:38:16.781Z,2.60
2019-01-29T03:38:52.206Z,2.50
2019-01-29T03:39:28.320Z,2.77
2019-01-29T03:40:04.375Z,2.70
2019-01-29T03:40:39.789Z,2.50
2019-01-29T03:41:15.211Z,2.70
2019-01-29T03:41:50.858Z,2.47
2019-01-29T03:42:26.325Z,2.27
2019-01-29T03:43:01.765Z,2.63
2019-01-29T03:43:37.187Z,2.37
2019-01-29T03:44:12.638Z,2.40
2019-01-29T03:44:48.058Z,2.37
2019-01-29T03:45:23.531Z,2.83
2019-01-29T03:45:59.256Z,2.07
2019-01-29T03:46:34.797Z,2.70
2019-01-29T03:47:10.206Z,2.70
2019-01-29T03:47:45.867Z,2.83
2019-01-29T03:48:21.415Z,2.60
2019-01-29T03:48:56.882Z,2.77
2019-01-29T03:49:34.216Z,2.93
2019-01-29T03:50:10.388Z,2.60
2019-01-29T03:50:46.067Z,2.40
2019-01-29T03:51:22.009Z,2.43
2019-01-29T03:51:57.484Z,2.70
2019-01-29T03:52:33.221Z,2.40
2019-01-29T03:53:08.922Z,3.80
2019-01-29T03:53:44.338Z,2.70
2019-01-29T03:54:19.859Z,2.83
2019-01-29T03:54:55.581Z,2.80
2019-01-29T03:55:31.130Z,2.47
2019-01-29T03:56:06.543Z,2.60
2019-01-29T03:56:42.221Z,2.70
2019-01-29T03:57:17.636Z,3.00
2019-01-29T03:57:53.080Z,2.77
2019-01-29T03:58:28.547Z,2.80
2019-01-29T03:59:04.680Z,2.53
2019-01-29T03:59:40.157Z,2.40
2019-01-29T04:00:17.658Z,2.30
2019-01-29T04:00:53.096Z,2.67
2019-01-29T04:01:28.846Z,2.50
2019-01-29T04:02:04.717Z,3.03
2019-01-29T04:02:40.148Z,2.97
2019-01-29T04:03:15.583Z,2.57
2019-01-29T04:03:51.014Z,3.00
2019-01-29T04:04:26.490Z,2.60
2019-01-29T04:05:01.941Z,2.50
2019-01-29T04:05:37.441Z,2.70
2019-01-29T04:06:12.879Z,2.73
2019-01-29T04:06:48.291Z,2.87
2019-01-29T04:07:23.791Z,2.40
2019-01-29T04:07:59.238Z,2.80
2019-01-29T04:08:34.921Z,2.60
2019-01-29T04:09:10.631Z,2.90
2019-01-29T04:09:46.149Z,2.63
2019-01-29T04:10:21.865Z,2.60
2019-01-29T04:10:57.392Z,2.70
2019-01-29T04:11:32.827Z,2.67
2019-01-29T04:12:08.261Z,2.80
2019-01-29T04:12:43.688Z,2.83
2019-01-29T04:13:19.123Z,2.80
2019-01-29T04:13:54.647Z,3.20
2019-01-29T04:14:30.105Z,3.03
2019-01-29T04:15:07.497Z,2.93
2019-01-29T04:15:43.392Z,3.13
2019-01-29T04:16:18.818Z,3.67
2019-01-29T04:16:54.384Z,3.47
2019-01-29T04:17:29.827Z,3.00
2019-01-29T04:18:05.329Z,3.53
2019-01-29T04:18:41.080Z,3.30
2019-01-29T04:19:16.566Z,3.17
2019-01-29T04:19:52.066Z,3.00
2019-01-29T04:20:27.914Z,3.63
2019-01-29T04:21:03.333Z,3.40
2019-01-29T04:21:38.773Z,3.40
2019-01-29T04:22:14.249Z,3.33
2019-01-29T04:22:49.758Z,3.53
2019-01-29T04:23:25.460Z,3.83
2019-01-29T04:24:00.982Z,3.33
2019-01-29T04:24:36.537Z,3.57
2019-01-29T04:25:12.632Z,3.33
2019-01-29T04:25:50.263Z,3.40
2019-01-29T04:26:25.682Z,3.93
2019-01-29T04:27:01.351Z,3.50
2019-01-29T04:27:37.095Z,3.40
2019-01-29T04:28:12.556Z,3.50
2019-01-29T04:28:48.003Z,3.87
2019-01-29T04:29:23.415Z,3.90
2019-01-29T04:29:58.869Z,3.60
2019-01-29T04:30:34.561Z,4.03
2019-01-29T04:31:10.032Z,3.23
2019-01-29T04:31:45.726Z,3.93
2019-01-29T04:32:21.141Z,3.10
2019-01-29T04:32:56.552Z,3.87
2019-01-29T04:33:32.257Z,3.67
2019-01-29T04:34:07.790Z,4.13
2019-01-29T04:34:43.524Z,3.60
2019-01-29T04:35:18.926Z,3.43
2019-01-29T04:35:54.347Z,3.47
2019-01-29T04:36:29.777Z,4.10
2019-01-29T04:37:05.210Z,3.70
2019-01-29T04:37:40.908Z,4.00
2019-01-29T04:38:16.375Z,4.00
2019-01-29T04:38:51.793Z,4.30
2019-01-29T04:39:27.313Z,4.80
2019-01-29T04:40:03.033Z,3.80
2019-01-29T04:40:38.753Z,4.40
2019-01-29T04:41:14.269Z,4.40
2019-01-29T04:41:49.699Z,4.10
2019-01-29T04:42:25.193Z,4.37
2019-01-29T04:43:00.890Z,4.23
2019-01-29T04:43:36.567Z,4.37
2019-01-29T04:44:12.048Z,4.27
2019-01-29T04:44:47.567Z,4.00
2019-01-29T04:45:23.003Z,4.00
2019-01-29T04:45:58.713Z,4.13
2019-01-29T04:46:34.131Z,4.13
2019-01-29T04:47:09.600Z,3.90
2019-01-29T04:47:45.339Z,4.47
2019-01-29T04:48:21.354Z,4.60
2019-01-29T04:48:56.771Z,3.90
2019-01-29T04:49:32.213Z,3.97
2019-01-29T04:50:09.113Z,4.13
2019-01-29T04:50:44.575Z,4.23
2019-01-29T04:51:20.191Z,4.40
2019-01-29T04:51:55.608Z,4.70
2019-01-29T04:52:31.035Z,4.20
2019-01-29T04:53:06.540Z,4.37
2019-01-29T04:53:41.959Z,4.10
2019-01-29T04:54:17.694Z,4.00
2019-01-29T04:54:53.127Z,4.47
2019-01-29T04:55:28.541Z,4.33
2019-01-29T04:56:04.051Z,3.97
2019-01-29T04:56:39.605Z,4.20
2019-01-29T04:57:15.059Z,4.20
2019-01-29T04:57:50.582Z,4.20
2019-01-29T04:58:26.012Z,4.13
2019-01-29T04:59:01.451Z,4.80
2019-01-29T04:59:37.147Z,4.40
2019-01-29T05:00:15.249Z,3.87
2019-01-29T05:00:50.670Z,4.63
2019-01-29T05:01:26.093Z,4.60
2019-01-29T05:02:01.523Z,4.50
2019-01-29T05:02:36.948Z,3.90
2019-01-29T05:03:12.401Z,4.70
2019-01-29T05:03:48.172Z,4.20
2019-01-29T05:04:23.592Z,4.67
2019-01-29T05:04:59.062Z,4.77
2019-01-29T05:05:34.763Z,4.63
2019-01-29T05:06:10.528Z,4.78
2019-01-29T05:06:45.994Z,4.90
2019-01-29T05:07:21.411Z,4.87
2019-01-29T05:07:56.923Z,4.83
2019-01-29T05:08:32.338Z,4.73
2019-01-29T05:09:09.212Z,4.70
2019-01-29T05:09:44.648Z,4.63
2019-01-29T05:10:20.216Z,4.40
2019-01-29T05:10:55.745Z,4.07
2019-01-29T05:11:31.159Z,4.47
2019-01-29T05:12:06.847Z,5.03
2019-01-29T05:12:42.342Z,4.53
2019-01-29T05:13:17.901Z,4.20
2019-01-29T05:13:53.374Z,5.20
2019-01-29T05:14:28.881Z,4.63
2019-01-29T05:15:04.917Z,4.53
2019-01-29T05:15:40.660Z,4.20
2019-01-29T05:16:16.121Z,4.70
2019-01-29T05:16:51.575Z,4.70
2019-01-29T05:17:27.002Z,4.80
2019-01-29T05:18:02.432Z,4.43
2019-01-29T05:18:37.938Z,4.50
2019-01-29T05:19:13.382Z,5.30
2019-01-29T05:19:48.795Z,4.97
2019-01-29T05:20:24.254Z,4.57
2019-01-29T05:20:59.660Z,5.23
2019-01-29T05:21:35.085Z,5.20
2019-01-29T05:22:10.624Z,4.70
2019-01-29T05:22:46.376Z,4.67
2019-01-29T05:23:21.826Z,5.43
2019-01-29T05:24:06.456Z,4.53
2019-01-29T05:24:34.337Z,5.13
2019-01-29T05:25:10.380Z,4.77
2019-01-29T05:25:46.137Z,4.80
2019-01-29T05:26:21.948Z,4.80
2019-01-29T05:26:57.628Z,5.20
2019-01-29T05:27:33.070Z,4.87
2019-01-29T05:28:08.557Z,5.00
2019-01-29T05:28:44.033Z,4.83
2019-01-29T05:29:19.800Z,4.97
2019-01-29T05:29:55.283Z,4.80
2019-01-29T05:30:30.737Z,5.00
2019-01-29T05:31:06.168Z,4.73
2019-01-29T05:31:41.805Z,4.57
2019-01-29T05:32:17.237Z,5.40
2019-01-29T05:32:52.665Z,5.17
2019-01-29T05:33:28.073Z,5.43
2019-01-29T05:34:03.752Z,5.13
2019-01-29T05:34:39.282Z,5.13
2019-01-29T05:35:14.894Z,4.80
2019-01-29T05:35:50.662Z,4.63
2019-01-29T05:36:26.089Z,6.40
2019-01-29T05:37:01.518Z,5.37
2019-01-29T05:37:37.675Z,5.63
2019-01-29T05:38:13.112Z,5.27
2019-01-29T05:38:48.673Z,5.63
2019-01-29T05:39:24.409Z,5.43
2019-01-29T05:40:00.270Z,5.20
2019-01-29T05:40:35.711Z,5.43
2019-01-29T05:41:11.140Z,5.80
2019-01-29T05:41:47.177Z,5.70
2019-01-29T05:42:22.622Z,5.40
2019-01-29T05:42:58.276Z,4.67
2019-01-29T05:43:33.767Z,5.67
2019-01-29T05:44:09.205Z,5.83
2019-01-29T05:44:44.676Z,4.63
2019-01-29T05:45:21.101Z,5.07
2019-01-29T05:45:56.562Z,5.37
2019-01-29T05:46:31.963Z,5.83
2019-01-29T05:47:07.728Z,5.40
2019-01-29T05:47:43.361Z,5.27
2019-01-29T05:48:19.230Z,5.78
2019-01-29T05:48:54.732Z,5.73
2019-01-29T05:49:30.139Z,5.30
2019-01-29T05:50:06.733Z,5.47
2019-01-29T05:50:42.336Z,5.77
2019-01-29T05:51:18.172Z,5.00
2019-01-29T05:51:53.588Z,5.20
2019-01-29T05:52:29.026Z,5.40
2019-01-29T05:53:04.556Z,5.00
2019-01-29T05:53:40.298Z,5.10
2019-01-29T05:54:16.598Z,4.87
2019-01-29T05:54:52.189Z,4.50
2019-01-29T05:55:27.606Z,5.13
2019-01-29T05:56:03.147Z,5.07
2019-01-29T05:56:38.921Z,4.63
2019-01-29T05:57:14.371Z,5.47
2019-01-29T05:57:49.918Z,5.40
2019-01-29T05:58:25.337Z,4.93
2019-01-29T05:59:00.762Z,5.37
2019-01-29T05:59:36.502Z,5.10
2019-01-29T06:00:15.209Z,5.10
2019-01-29T06:00:50.691Z,5.30
2019-01-29T06:01:26.387Z,4.90
2019-01-29T06:02:01.792Z,5.17
2019-01-29T06:02:37.217Z,5.40
2019-01-29T06:03:12.648Z,5.70
2019-01-29T06:03:48.468Z,5.20
2019-01-29T06:04:23.913Z,4.80
2019-01-29T06:04:59.340Z,5.00
2019-01-29T06:05:34.772Z,5.10
2019-01-29T06:06:10.335Z,5.07
2019-01-29T06:06:45.984Z,5.53
2019-01-29T06:07:21.437Z,5.87
2019-01-29T06:07:57.169Z,5.30
2019-01-29T06:08:32.875Z,5.10
2019-01-29T06:09:09.410Z,4.93
2019-01-29T06:09:45.283Z,5.17
2019-01-29T06:10:20.820Z,5.57
2019-01-29T06:10:56.223Z,5.03
2019-01-29T06:11:31.974Z,4.97
2019-01-29T06:12:07.630Z,4.90
2019-01-29T06:12:43.007Z,4.90
2019-01-29T06:13:18.678Z,5.40
2019-01-29T06:13:54.096Z,5.00
2019-01-29T06:14:29.870Z,5.13
2019-01-29T06:15:06.832Z,5.70
2019-01-29T06:15:42.249Z,6.03
2019-01-29T06:16:17.675Z,5.90
2019-01-29T06:16:53.376Z,5.67
2019-01-29T06:17:29.088Z,5.03
2019-01-29T06:18:04.784Z,5.90
2019-01-29T06:18:40.132Z,5.23
2019-01-29T06:19:15.534Z,5.23
2019-01-29T06:19:50.977Z,5.70
2019-01-29T06:20:27.286Z,5.50
2019-01-29T06:21:02.747Z,5.20
2019-01-29T06:21:38.146Z,5.47
2019-01-29T06:22:13.538Z,5.50
2019-01-29T06:22:49.004Z,5.67
2019-01-29T06:23:24.467Z,5.47
2019-01-29T06:23:59.913Z,5.57
2019-01-29T06:24:35.381Z,5.57
2019-01-29T06:25:10.778Z,5.53
2019-01-29T06:25:46.148Z,6.07
2019-01-29T06:26:21.683Z,5.93
2019-01-29T06:26:57.119Z,5.27
2019-01-29T06:27:32.821Z,6.00
2019-01-29T06:28:08.476Z,5.63
2019-01-29T06:28:43.879Z,6.13
2019-01-29T06:29:19.543Z,5.47
2019-01-29T06:29:55.071Z,6.00
2019-01-29T06:30:30.512Z,5.40
2019-01-29T06:31:05.918Z,5.93
2019-01-29T06:31:41.342Z,6.50
2019-01-29T06:32:16.973Z,5.53
2019-01-29T06:32:52.731Z,6.33
2019-01-29T06:33:28.425Z,6.07
2019-01-29T06:34:04.086Z,6.27
2019-01-29T06:34:39.472Z,5.90
2019-01-29T06:35:16.022Z,6.67
2019-01-29T06:35:51.729Z,5.90
2019-01-29T06:36:27.211Z,5.57
2019-01-29T06:37:02.602Z,5.60
2019-01-29T06:37:38.025Z,6.73
2019-01-29T06:38:13.413Z,6.10
2019-01-29T06:38:49.097Z,6.70
2019-01-29T06:39:24.587Z,5.33
2019-01-29T06:40:00.391Z,6.20
2019-01-29T06:40:35.911Z,5.90
2019-01-29T06:41:11.319Z,5.87
2019-01-29T06:41:46.785Z,5.97
2019-01-29T06:42:22.252Z,6.53
2019-01-29T06:42:57.947Z,5.80
2019-01-29T06:43:33.373Z,6.30
2019-01-29T06:44:08.773Z,5.70
2019-01-29T06:44:44.171Z,5.77
2019-01-29T06:45:20.504Z,5.73
2019-01-29T06:45:56.280Z,6.30
2019-01-29T06:46:31.752Z,5.87
2019-01-29T06:47:07.191Z,6.43
2019-01-29T06:47:42.855Z,5.77
2019-01-29T06:48:18.247Z,5.70
2019-01-29T06:48:54.001Z,6.17
2019-01-29T06:49:29.456Z,6.27
2019-01-29T06:50:06.209Z,5.80
2019-01-29T06:50:41.642Z,6.60
2019-01-29T06:51:17.053Z,6.40
2019-01-29T06:51:52.549Z,5.90
2019-01-29T06:52:27.986Z,5.40
2019-01-29T06:53:03.387Z,5.70
2019-01-29T06:53:38.778Z,6.10
2019-01-29T06:54:14.194Z,6.00
2019-01-29T06:54:49.587Z,6.10
2019-01-29T06:55:25.958Z,6.57
2019-01-29T06:56:01.668Z,6.00
2019-01-29T06:56:37.083Z,5.67
2019-01-29T06:57:12.761Z,5.90
2019-01-29T06:57:54.995Z,5.90
2019-01-29T06:58:25.386Z,5.63
2019-01-29T06:59:00.811Z,5.20
2019-01-29T06:59:36.245Z,5.70
2019-01-29T07:00:17.642Z,6.83
2019-01-29T07:00:53.025Z,5.97
2019-01-29T07:01:28.605Z,6.13
2019-01-29T07:02:04.245Z,5.70
2019-01-29T07:02:39.975Z,5.50
2019-01-29T07:03:15.541Z,6.33
2019-01-29T07:03:50.962Z,5.83
2019-01-29T07:04:26.628Z,6.30
2019-01-29T07:05:02.360Z,5.97
2019-01-29T07:05:37.773Z,6.27
2019-01-29T07:06:13.185Z,5.97
2019-01-29T07:06:48.854Z,6.20
2019-01-29T07:07:26.003Z,5.93
2019-01-29T07:08:01.695Z,6.13
2019-01-29T07:08:37.080Z,5.97
2019-01-29T07:09:12.464Z,6.43
2019-01-29T07:09:47.956Z,6.40
2019-01-29T07:10:23.770Z,5.80
2019-01-29T07:10:59.453Z,6.30
2019-01-29T07:11:34.854Z,6.50
2019-01-29T07:12:10.268Z,5.73
2019-01-29T07:12:46.037Z,6.03
2019-01-29T07:13:21.718Z,6.27
2019-01-29T07:13:57.185Z,5.70
2019-01-29T07:14:32.713Z,6.43
2019-01-29T07:15:11.052Z,6.17
2019-01-29T07:16:04.151Z,6.80
2019-01-29T07:16:58.533Z,6.67
2019-01-29T07:17:36.196Z,5.83
2019-01-29T07:18:20.622Z,6.03
2019-01-29T07:19:13.901Z,6.43
2019-01-29T07:19:51.609Z,6.40
2019-01-29T07:20:27.449Z,7.60
2019-01-29T07:21:04.760Z,6.73
2019-01-29T07:21:40.195Z,6.60
2019-01-29T07:22:15.593Z,6.50
2019-01-29T07:22:51.023Z,5.63
2019-01-29T07:23:26.491Z,6.07
2019-01-29T07:24:01.914Z,5.70
2019-01-29T07:24:42.651Z,5.83
2019-01-29T07:25:14.673Z,6.83
2019-01-29T07:25:50.052Z,6.70
2019-01-29T07:26:25.815Z,6.93
2019-01-29T07:27:01.643Z,6.57
2019-01-29T07:27:37.041Z,6.87
2019-01-29T07:28:13.454Z,5.93
2019-01-29T07:28:49.194Z,6.13
2019-01-29T07:29:24.644Z,6.87
2019-01-29T07:30:00.286Z,6.13
2019-01-29T07:30:35.783Z,6.40
2019-01-29T07:31:11.193Z,6.40
2019-01-29T07:31:46.666Z,6.30
2019-01-29T07:32:22.095Z,6.60
2019-01-29T07:32:57.572Z,6.13
2019-01-29T07:33:32.977Z,6.40
2019-01-29T07:34:08.389Z,6.47
2019-01-29T07:34:43.812Z,6.50
2019-01-29T07:35:19.196Z,6.40
2019-01-29T07:35:54.854Z,6.77
2019-01-29T07:36:30.284Z,6.57
2019-01-29T07:37:05.836Z,6.27
2019-01-29T07:37:41.251Z,6.50
2019-01-29T07:38:16.626Z,6.33
2019-01-29T07:38:52.024Z,6.43
2019-01-29T07:39:27.458Z,6.63
2019-01-29T07:40:02.928Z,5.73
2019-01-29T07:40:38.343Z,6.93
2019-01-29T07:41:13.747Z,7.30
2019-01-29T07:41:49.133Z,6.40
2019-01-29T07:42:24.648Z,6.40
2019-01-29T07:43:00.343Z,6.53
2019-01-29T07:43:35.794Z,7.07
2019-01-29T07:44:11.207Z,6.60
2019-01-29T07:44:46.679Z,6.40
2019-01-29T07:45:22.269Z,6.30
2019-01-29T07:45:58.023Z,6.77
2019-01-29T07:46:33.557Z,6.37
2019-01-29T07:47:08.978Z,6.67
2019-01-29T07:47:44.645Z,6.47
2019-01-29T07:48:20.103Z,6.30
2019-01-29T07:48:57.616Z,6.20
2019-01-29T07:49:33.334Z,6.13
2019-01-29T07:50:09.231Z,7.60
2019-01-29T07:50:44.622Z,6.30
2019-01-29T07:51:20.016Z,6.53
2019-01-29T07:51:55.443Z,6.13
2019-01-29T07:52:31.261Z,6.80
2019-01-29T07:53:06.694Z,6.37
2019-01-29T07:53:42.076Z,6.27
2019-01-29T07:54:17.469Z,6.47
2019-01-29T07:54:52.856Z,5.90
2019-01-29T07:55:28.296Z,6.50
2019-01-29T07:56:03.787Z,6.20